Time;durP1;ratioP1;P1;durP2;ratioP2;P2;SDS_P1;SDS_P2;PMS_P1;PMS_P2;Temp;Humidity;BMP_temperature;BMP_pressure;BME280_temperature;BME280_humidity;BME280_pressure;Samples;Min_cycle;Max_cycle;Signal;HPM_P1;HPM_P2
2021/06/27 00:02:51;;;;;;;14.25;10.02;;;;;;;18.24;77.36;100377.63;20662599;28;20058;-71
2021/06/27 00:12:53;;;;;;;14.32;10.00;;;;;;;18.16;77.11;100385.97;20673253;28;20046;-71
2021/06/27 00:22:55;;;;;;;13.35;10.32;;;;;;;18.03;77.57;100387.47;20671758;28;20134;-71
2021/06/27 00:32:58;;;;;;;14.88;10.18;;;;;;;17.99;77.53;100377.09;20670894;28;20061;-71
2021/06/27 00:43:00;;;;;;;13.45;10.45;;;;;;;17.85;77.56;100380.38;20670265;28;20046;-71
2021/06/27 00:53:03;;;;;;;14.27;10.43;;;;;;;17.78;77.77;100376.31;20669547;28;20050;-71
2021/06/27 01:03:05;;;;;;;16.75;10.60;;;;;;;17.51;79.35;100376.56;20667369;28;20046;-71
2021/06/27 01:13:07;;;;;;;15.52;10.90;;;;;;;17.57;78.73;100391.31;20667668;28;20047;-71
2021/06/27 01:23:12;;;;;;;14.63;10.90;;;;;;;17.56;78.75;100395.75;20668485;28;20141;-71
2021/06/27 01:33:17;;;;;;;16.13;11.68;;;;;;;17.35;79.45;100408.16;20666542;28;20050;-71
2021/06/27 01:43:22;;;;;;;14.93;11.38;;;;;;;17.18;80.39;100390.34;20666772;28;20054;-71
2021/06/27 01:53:26;;;;;;;16.85;11.70;;;;;;;17.13;80.45;100402.94;20664764;28;20046;-72
2021/06/27 02:03:28;;;;;;;;;;;;;;;17.10;80.52;100403.06;20664192;28;20085;-71
2021/06/27 02:13:30;;;;;;;14.75;11.23;;;;;;;17.02;80.86;100373.44;20663283;28;19921;-71
2021/06/27 02:23:32;;;;;;;21.55;12.30;;;;;;;17.11;80.11;100358.97;20662005;28;20061;-71
2021/06/27 02:33:34;;;;;;;16.83;11.45;;;;;;;17.16;79.93;100341.94;20660898;28;20054;-71
2021/06/27 02:43:37;;;;;;;17.08;11.68;;;;;;;17.11;80.04;100343.94;20661984;28;20047;-71
2021/06/27 02:53:39;;;;;;;17.67;11.65;;;;;;;17.09;79.86;100318.47;20660692;28;20051;-71
2021/06/27 03:03:42;;;;;;;14.77;11.45;;;;;;;17.01;80.32;100308.25;20660310;28;20058;-71
2021/06/27 03:13:44;;;;;;;15.77;11.00;;;;;;;17.06;80.20;100316.84;20660438;28;20053;-72
2021/06/27 03:23:46;;;;;;;15.05;10.70;;;;;;;16.96;80.53;100289.06;20659687;28;20129;-71
2021/06/27 03:33:50;;;;;;;16.85;11.32;;;;;;;16.89;80.99;100303.47;20658107;28;20050;-71
2021/06/27 03:43:52;;;;;;;16.02;11.60;;;;;;;16.85;80.99;100325.69;20658135;28;20054;-70
2021/06/27 03:53:54;;;;;;;17.42;11.98;;;;;;;16.87;80.87;100332.63;20657357;28;20101;-71
2021/06/27 04:03:56;;;;;;;20.02;11.40;;;;;;;17.00;80.61;100326.78;20656500;28;20394;-71
2021/06/27 04:13:57;;;;;;;21.52;11.68;;;;;;;16.83;81.07;100338.97;20656812;28;20109;-71
2021/06/27 04:23:59;;;;;;;15.35;10.65;;;;;;;16.75;81.26;100327.84;20654808;28;20050;-71
2021/06/27 04:34:01;;;;;;;15.45;10.80;;;;;;;16.96;80.77;100330.50;20655539;28;20516;-71
2021/06/27 04:44:03;;;;;;;14.90;10.63;;;;;;;17.15;79.79;100315.53;20655277;28;20047;-71
2021/06/27 04:54:05;;;;;;;15.75;10.25;;;;;;;18.19;75.58;100316.03;20666830;28;20100;-71
2021/06/27 05:04:07;;;;;;;14.40;9.85;;;;;;;17.76;77.36;100323.38;20669466;28;20050;-71
2021/06/27 05:14:08;;;;;;;13.02;9.70;;;;;;;17.87;76.98;100301.69;20652168;28;20055;-72
2021/06/27 05:24:10;;;;;;;12.57;9.63;;;;;;;18.18;76.18;100309.88;20661572;28;20116;-72
2021/06/27 05:34:12;;;;;;;12.63;9.60;;;;;;;18.42;75.43;100296.38;20668417;28;20062;-71
2021/06/27 05:44:14;;;;;;;12.05;8.50;;;;;;;18.80;74.88;100301.56;20667926;28;20116;-71
2021/06/27 05:54:16;;;;;;;13.32;8.90;;;;;;;18.75;73.45;100298.28;20667243;28;20405;-71
2021/06/27 06:04:17;;;;;;;12.18;9.25;;;;;;;18.69;74.42;100300.31;20664703;28;20050;-70
2021/06/27 06:14:19;;;;;;;11.18;8.73;;;;;;;19.06;72.29;100306.38;20664976;28;20145;-70
2021/06/27 06:24:21;;;;;;;11.48;8.27;;;;;;;19.50;72.15;100292.53;20664493;28;20058;-70
2021/06/27 06:34:22;;;;;;;16.20;9.82;;;;;;;19.39;71.05;100295.75;20663248;28;20117;-70
2021/06/27 06:44:24;;;;;;;12.93;8.57;;;;;;;19.81;70.18;100290.88;20664793;28;20050;-70
2021/06/27 06:54:26;;;;;;;12.50;8.60;;;;;;;20.09;68.92;100275.09;20662902;28;20463;-71
2021/06/27 07:04:28;;;;;;;13.05;8.43;;;;;;;20.35;68.86;100272.72;20649170;28;20105;-70
2021/06/27 07:14:30;;;;;;;10.57;7.68;;;;;;;20.72;67.36;100276.78;20614533;28;20055;-71
2021/06/27 07:24:32;;;;;;;11.63;7.60;;;;;;;20.83;67.54;100281.44;20603351;28;20055;-70
2021/06/27 07:34:34;;;;;;;11.90;7.28;;;;;;;21.36;64.91;100274.66;20579495;28;20052;-71
2021/06/27 07:44:35;;;;;;;11.32;7.50;;;;;;;21.67;64.55;100279.78;20645029;28;20043;-71
2021/06/27 07:54:38;;;;;;;10.18;7.57;;;;;;;21.90;63.31;100274.78;20659398;28;20050;-71
2021/06/27 08:04:40;;;;;;;9.43;5.93;;;;;;;22.27;62.37;100271.44;20658890;28;20053;-71
2021/06/27 08:14:41;;;;;;;8.38;6.32;;;;;;;22.84;61.73;100259.59;20658948;28;20459;-71
2021/06/27 08:24:44;;;;;;;10.80;6.18;;;;;;;22.98;60.95;100258.69;20666151;28;20101;-71
2021/06/27 08:34:45;;;;;;;11.00;6.15;;;;;;;23.35;58.62;100250.75;20671685;28;20101;-71
2021/06/27 08:44:49;;;;;;;9.23;6.47;;;;;;;23.73;57.82;100223.97;20673168;28;20552;-71
2021/06/27 08:54:52;;;;;;;7.45;5.85;;;;;;;23.95;57.50;100233.91;20673170;28;20054;-71
2021/06/27 09:04:56;;;;;;;8.05;6.22;;;;;;;24.13;57.16;100232.56;20671808;28;20077;-71
2021/06/27 09:14:58;;;;;;;8.95;6.50;;;;;;;24.77;56.60;100238.41;20671410;28;20050;-71
2021/06/27 09:25:19;;;;;;;6.85;5.32;;;;;;;24.89;53.29;100233.91;20671035;28;20046;-71
2021/06/27 09:35:42;;;;;;;8.57;5.65;;;;;;;25.72;52.03;100220.13;20669066;28;20464;-71
2021/06/27 09:45:54;;;;;;;7.82;5.40;;;;;;;25.55;53.43;100207.25;20669781;28;20085;-71
2021/06/27 09:55:57;;;;;;;7.50;4.78;;;;;;;26.28;52.38;100219.97;20669208;28;20078;-71
2021/06/27 10:06:08;;;;;;;7.03;5.20;;;;;;;26.41;52.15;100200.13;20667678;28;20046;-71
2021/06/27 10:16:15;;;;;;;8.25;5.15;;;;;;;26.97;47.95;100191.72;20668402;28;20078;-71
2021/06/27 10:26:19;;;;;;;6.75;5.00;;;;;;;26.73;50.12;100187.50;20665941;28;20409;-71
2021/06/27 10:36:39;;;;;;;6.13;4.60;;;;;;;27.46;48.13;100182.03;20664941;28;20050;-71
2021/06/27 10:46:50;;;;;;;5.78;4.07;;;;;;;27.46;47.73;100176.66;20664327;28;20112;-71
2021/06/27 10:57:06;;;;;;;6.32;4.45;;;;;;;27.21;47.08;100181.53;20664092;28;20050;-71
2021/06/27 11:07:31;;;;;;;6.10;4.85;;;;;;;27.55;47.52;100175.84;20662714;28;20129;-71
2021/06/27 11:17:53;;;;;;;7.70;4.32;;;;;;;27.92;46.55;100165.28;20662812;28;20054;-71
2021/06/27 11:27:54;;;;;;;8.80;4.95;;;;;;;27.72;47.37;100161.72;20654914;28;20050;-71
2021/06/27 11:37:56;;;;;;;5.57;3.88;;;;;;;28.26;45.60;100144.13;20660484;28;20504;-71
2021/06/27 11:47:58;;;;;;;6.18;4.38;;;;;;;28.22;42.40;100140.06;20660756;28;20054;-71
2021/06/27 11:58:01;;;;;;;5.27;3.80;;;;;;;28.42;41.97;100146.28;20659643;28;20047;-69
2021/06/27 12:08:05;;;;;;;5.43;3.93;;;;;;;28.63;41.15;100143.38;20659486;28;20054;-71
2021/06/27 12:18:13;;;;;;;6.10;3.90;;;;;;;28.47;41.50;100121.59;20659038;28;20477;-70
2021/06/27 12:28:37;;;;;;;6.40;4.07;;;;;;;28.71;42.14;100113.03;20658722;28;20050;-71
2021/06/27 12:38:41;;;;;;;5.82;4.22;;;;;;;28.75;42.13;100091.03;20641415;28;20436;-72
2021/06/27 12:48:45;;;;;;;7.57;3.70;;;;;;;28.69;41.16;100085.34;20658011;28;20051;-69
2021/06/27 12:58:56;;;;;;;5.00;3.55;;;;;;;28.59;41.74;100083.56;20577511;28;20051;-71
2021/06/27 13:09:14;;;;;;;7.97;3.88;;;;;;;29.13;39.73;100083.78;20579474;28;20931;-70
2021/06/27 13:19:16;;;;;;;5.55;3.13;;;;;;;29.07;39.17;100079.81;20660461;28;20042;-69
2021/06/27 13:29:20;;;;;;;5.97;3.42;;;;;;;29.50;39.03;100075.53;20669922;28;20063;-70
2021/06/27 13:39:22;;;;;;;4.88;3.10;;;;;;;29.31;37.11;100081.91;20672503;28;20420;-70
2021/06/27 13:49:23;;;;;;;5.10;3.53;;;;;;;29.42;38.58;100078.19;20670762;28;20062;-70
2021/06/27 13:59:25;;;;;;;6.43;4.53;;;;;;;28.95;39.75;100064.00;20668560;28;20074;-70
2021/06/27 14:09:27;;;;;;;5.70;3.25;;;;;;;28.70;39.98;100057.41;20656429;28;20042;-70
2021/06/27 14:19:28;;;;;;;4.53;3.20;;;;;;;28.05;41.60;100065.41;20664775;28;20049;-70
2021/06/27 14:29:30;;;;;;;5.47;3.30;;;;;;;28.10;42.10;100090.03;20664625;28;20314;-71
2021/06/27 14:39:32;;;;;;;4.38;3.17;;;;;;;28.12;41.46;100077.28;20662786;28;20519;-71
2021/06/27 14:49:34;;;;;;;4.97;3.17;;;;;;;27.96;41.40;100090.50;20662537;28;20050;-71
2021/06/27 14:59:36;;;;;;;4.88;3.05;;;;;;;27.92;42.36;100086.38;20662301;28;20046;-71
2021/06/27 15:09:38;;;;;;;5.43;2.90;;;;;;;27.40;45.06;100100.06;20661082;28;20491;-71
2021/06/27 15:19:40;;;;;;;6.57;3.95;;;;;;;27.01;46.94;100110.69;20660320;28;20053;-72
2021/06/27 15:29:44;;;;;;;6.25;3.58;;;;;;;26.49;57.47;100117.13;20579826;28;20055;-68
2021/06/27 15:39:46;;;;;;;6.80;3.97;;;;;;;26.20;57.74;100117.75;20578817;28;20039;-69
2021/06/27 15:49:48;;;;;;;7.88;3.80;;;;;;;26.39;58.58;100124.22;20599389;28;20058;-69
2021/06/27 15:59:49;;;;;;;6.60;3.78;;;;;;;25.70;56.02;100138.94;20658130;28;20105;-69
2021/06/27 16:09:51;;;;;;;6.53;4.00;;;;;;;24.89;56.53;100131.28;20657644;28;20730;-70
2021/06/27 16:19:52;;;;;;;5.65;4.07;;;;;;;24.71;58.36;100129.06;20657546;28;20464;-70
2021/06/27 16:29:56;;;;;;;5.82;3.80;;;;;;;24.41;59.52;100124.31;20657636;28;20481;-70
2021/06/27 16:39:57;;;;;;;6.53;3.97;;;;;;;24.02;60.28;100117.50;20650936;28;20109;-70
2021/06/27 16:49:59;;;;;;;6.45;4.20;;;;;;;23.87;60.35;100105.31;20657377;28;20050;-70
2021/06/27 17:00:05;;;;;;;7.78;4.25;;;;;;;23.07;62.89;100107.63;20674554;28;20053;-69
2021/06/27 17:10:10;;;;;;;6.43;4.53;;;;;;;23.16;63.09;100104.31;20752440;28;20116;-69
2021/06/27 17:20:15;;;;;;;8.30;4.07;;;;;;;23.19;62.97;100110.28;20662125;28;20096;-70
2021/06/27 17:30:17;;;;;;;7.70;4.32;;;;;;;23.25;62.51;100107.16;20669991;28;20047;-70
2021/06/27 17:40:20;;;;;;;6.20;4.50;;;;;;;23.55;62.28;100108.53;20667942;28;20052;-71
2021/06/27 17:50:22;;;;;;;7.00;4.68;;;;;;;23.35;nan;100112.66;20634469;28;20042;-70
2021/06/27 18:00:24;;;;;;;7.05;4.43;;;;;;;23.53;62.86;100110.47;20658420;28;20509;-69
2021/06/27 18:10:26;;;;;;;6.60;4.68;;;;;;;23.47;63.47;100110.91;20644481;28;20097;-70
2021/06/27 18:20:27;;;;;;;8.07;4.63;;;;;;;23.47;63.13;100105.56;20654010;28;20109;-70
2021/06/27 18:30:29;;;;;;;8.50;4.80;;;;;;;23.34;63.45;100113.66;20664776;28;20057;-70
2021/06/27 18:40:31;;;;;;;7.95;5.07;;;;;;;23.35;65.59;100133.19;20647148;28;20104;-70
2021/06/27 18:50:34;;;;;;;8.50;4.88;;;;;;;23.09;67.36;100122.56;20652163;28;20495;-70
2021/06/27 19:00:38;;;;;;;7.50;5.70;;;;;;;22.82;68.23;100136.06;20663210;28;20482;-70
2021/06/27 19:10:41;;;;;;;6.93;4.80;;;;;;;22.77;67.12;100157.75;20661514;28;20053;-69
2021/06/27 19:20:44;;;;;;;7.28;4.30;;;;;;;22.90;67.27;100172.91;20649515;28;20093;-69
2021/06/27 19:30:46;;;;;;;8.25;5.10;;;;;;;22.90;67.21;100176.47;20660713;28;20046;-70
2021/06/27 19:40:47;;;;;;;8.60;6.63;;;;;;;22.84;68.28;100163.50;20660552;28;20555;-69
2021/06/27 19:50:50;;;;;;;8.48;6.50;;;;;;;22.59;69.28;100172.38;20647756;28;20053;-70
2021/06/27 20:00:52;;;;;;;7.18;5.10;;;;;;;22.34;70.11;100172.34;20658843;28;20117;-69
2021/06/27 20:10:54;;;;;;;6.90;5.47;;;;;;;22.15;72.83;100173.59;20659107;28;20513;-70
2021/06/27 20:20:56;;;;;;;8.25;5.13;;;;;;;21.76;74.06;100182.41;20656899;28;20412;-70
2021/06/27 20:31:03;;;;;;;9.93;5.82;;;;;;;21.55;75.28;100184.63;20657916;28;20060;-70
2021/06/27 20:41:05;;;;;;;8.57;6.45;;;;;;;21.44;75.54;100163.19;20657101;28;20054;-69
2021/06/27 20:51:07;;;;;;;8.85;6.30;;;;;;;21.40;76.12;100169.66;20659919;28;20386;-69
2021/06/27 21:01:08;;;;;;;8.95;6.20;;;;;;;20.88;78.15;100160.44;20671586;28;20057;-70
2021/06/27 21:11:10;;;;;;;9.88;6.60;;;;;;;20.56;78.82;100154.47;20671175;28;20046;-70
2021/06/27 21:21:12;;;;;;;9.63;6.53;;;;;;;20.30;79.78;100163.13;20660293;28;20278;-71
2021/06/27 21:31:15;;;;;;;8.90;6.55;;;;;;;20.40;80.05;100166.94;20668579;28;20105;-71
2021/06/27 21:41:16;;;;;;;10.35;7.53;;;;;;;20.53;79.03;100183.91;20669958;28;20047;-71
2021/06/27 21:51:18;;;;;;;7.25;6.18;;;;;;;20.51;79.12;100207.09;20657110;28;20049;-72
2021/06/27 22:01:20;;;;;;;7.93;6.05;;;;;;;20.56;79.06;100210.34;20667460;28;20054;-71
2021/06/27 22:11:22;;;;;;;8.43;6.43;;;;;;;20.53;79.03;100215.81;20595375;28;20446;-72
2021/06/27 22:21:25;;;;;;;10.55;6.78;;;;;;;20.61;78.88;100229.53;20651987;28;20053;-71
2021/06/27 22:31:27;;;;;;;10.70;6.80;;;;;;;20.62;78.75;100233.91;20745030;28;20054;-71
2021/06/27 22:41:29;;;;;;;9.48;6.72;;;;;;;20.52;79.26;100232.75;20745361;28;20046;-71
2021/06/27 22:51:31;;;;;;;7.75;6.30;;;;;;;20.47;79.59;100237.47;20733235;28;20096;-71
2021/06/27 23:01:33;;;;;;;8.05;6.20;;;;;;;20.58;79.51;100242.16;20743211;28;20112;-70
2021/06/27 23:11:35;;;;;;;10.80;6.22;;;;;;;20.59;79.37;100244.72;20742676;28;20046;-71
2021/06/27 23:21:37;;;;;;;7.85;5.80;;;;;;;20.51;79.72;100249.66;20730487;28;20065;-71
2021/06/27 23:31:39;;;;;;;11.02;7.30;;;;;;;20.43;79.75;100243.88;20740998;28;20496;-71
2021/06/27 23:41:41;;;;;;;9.60;7.22;;;;;;;20.34;80.34;100241.75;20742987;28;20058;-71
2021/06/27 23:51:43;;;;;;;9.93;7.15;;;;;;;20.27;80.87;100221.81;20703037;28;20120;-71
